Weather at Lillehammer Mjøsisen Ice Runway [CLOSED]

Public forecast

Using degrees Celsius for public forecast. Weather courtesy of forecast.io.

Closest aviation weather report (METAR) to Lillehammer Mjøsisen Ice Runway

Closest report is Oslo Airport, Gardermoen, 57.5 nm (106.5 km) SSE.

2024/05/22 16:50 (retrieved 16 minutes ago)

ENGM 221650Z 14012KT 110V170 CAVOK 23/05 Q1018 NOSIG

Closest aviation forecast (TAF) to Lillehammer Mjøsisen Ice Runway

Closest forecast is Oslo Airport, Gardermoen, 57.5 nm (106.5 km) SSE.

2024/05/22 12:36 (retrieved 5 hours ago)

TAF ENGM 221100Z 2212/2312 14010KT CAVOK BECMG 2218/2220 01005KT BECMG 2310/2312 12010KT